Hauptseite
METAR-TAF:

METAR-TAF

Flughäfen :

Flughafen Frankfurt am Main

Frankfurt am Main, Deutschland

Breite: 50-03N, Länge: 008-36E, Höhe: 111 m

Beobachtung

Neuester Wetterbericht von vor 35 Minuten, um 01:50 UTC
Wind 15 kt aus Nord/Nordost
Temperatur 3°C
Luftfeuchtigkeit 70%
Luftdruck 1028 hPa
Sichtweite 10 km oder mehr
keine Wolken unter 1500 m und keine Kumulonimbus oder Gewitterwolken

METAR: EDDF 180150Z 02015KT CAVOK 03/M02 Q1028 NOSIG

Zeit: 03:25 (02:25 UTC)

Prognose

Neuester Wetterbericht von vor 3 Stunden und 25 Minuten, um 23:00 UTC
Gültige Prognose vom 18 um 00 UTC bis 19 um 06 UTC
Wind 10 kt aus Nord/Nordost
Sichtweite 10 km oder mehr
keine Wolken unter 1500 m und keine Kumulonimbus oder Gewitterwolken
Übergehend zu
vom 19 um 03 UTC bis 19 um 06 UTC
Durchbrochene Bewölkung in der Höhe von 2500 ft

TAF: EDDF 172300Z 1800/1906 03010KT CAVOK BECMG 1903/1906 BKN025

Wetterbeobachtungen und Prognosen von mehr als 4000 Flughäfen (METAR und TAF Bericht).

Die verfügbaren Stationen werden durch gelbe und rote Markierungen auf der Karte dargestellt.

Führen Sie die Maus auf sie, um den Namen der Station zu sehen.

Darauf klicken, um die Beobachtung von Wetterbeobachtungen und Prognosen zu sehen.

Um die Karte zu ändern : klicken Sie auf den grünen Tasten mit einem schwarzen Kreuz Zum Vergrößern, auf den grünen Button mit einem Gedankenstrich zu verkleinern, oder auf die grünen Pfeile für benachbarte Karten.


METAR-TAF: